Terminal Aerodrome Forecast
Issued by NWS Albany, NY

Home | Current Version | Previous Version | Text Only | Print | Product List | Glossary On
Versions: 1 2 3 4 5 6 7 8 9 10 11 12 13 14 15 16 17 18 19 20 21 22
000
FTUS41 KALY 301143 AAB
TAFGFL
TAF AMD
KGFL 301143Z 3012/3112 20005KT 6SM BR SCT006 SCT050 BKN120
      TEMPO 3012/3014 BKN006
     FM301500 21008KT P6SM VCSH BKN045 BKN110 BKN200
     FM302100 22009KT P6SM SCT045 SCT100
     FM310000 23005KT P6SM SKC=

USA.gov is the U.S. government's official web portal to all federal, state and local government web resources and services.